Sterling, Georgia
Current Conditions -  °F | °C
As of 4:55 AM on Wednesday 26 Nov 2014 (Local Time) from KBQK Reporting Station
Overcast Overcast  
Wind Chill: 50°   Ceiling: 600
Heat Index: 50°   Visibility: 5mi
Dew Point: 46°   Wind: 9mph
Humidity: 87%   Direction: 290°WNW
Pressure: 29.93"   Gusts: NA
Location:  31.2665°N, 81.6074°W
Report Text: KBQK 260955Z AUTO 29008KT 5SM OVC006 10/08 A2993 RMK AO1 LTG DSNT SE
Loading
Personal Weather Stations






























Interactive Weather Map New forecast layout! Learn more

10-Day Weather Forecast

Advertisements
Track Severe Weather on mobile